الصفحة الرئيسية
METAR-TAF:

METAR-TAF

مطار :

مطار تشاتراباتي شيفاجي الدولي

مومباي, الهند

دائرة عرض: 19-07N, خط طول: 072-51E, ارتفاع: 8 متر

مراقبة الطقس الحالي

تاريخ ووقت الإصدار 25 دقيقة قبل الساعة 04:00UTC
ريح 4 عقدة من الشرق/الشمال الشرقي
درجة الحرارة 31°درجة مئوية
الرطوبة 38%
ضغط 1014 hPa
الرؤية: 2500 متر
دخان

METAR: VABB 180400Z 06004KT 2500 FU NSC 31/15 Q1014 NOSIG

زمن: 09:55 (04:25 UTC)

توقعات

تاريخ ووقت الإصدار 2ساعات و 25 دقيقة قبل الساعة 02:00UTC
التوقعات صالحة من18 الساعة 03 UTC إلى 18 الساعة 12 UTC
ريح 5 عقدة من الشرق
الرؤية: 2000 متر
العجاج
أصبح
من 18 الساعة 04 UTC إلى 18 الساعة 06 UTC
الرؤية: 3000 متر
دخان
أصبح
من 18 الساعة 09 UTC إلى 18 الساعة 11 UTC
ريح 8 عقدة من الغرب
الرؤية: 4000 متر
دخان

TAF: VABB 180200Z 1803/1812 09005KT 2000 HZ NSC BECMG 1804/1806 3000 FU BECMG 1809/1811 27008KT 4000 FU

أرصاد الطقس والتوقعات من أكثر من 4000 مطار (تقارير الطقس للمطار METAR والتنبؤ بالطقس بالمطارTAF).

المحطات المتاحة هي النقط الصفراء والحمراء على الخريطة.

حرك المؤشر فوق النقطة لمعرفة اسم المحطة.

ثم انقر لمعرفة أرصاد وتوقعات الطقس.

لتغيير الخارطة: اضغط على الأزرار الخضراء مع رمز الصليب الأسود للتكبير. على الزر الأخضر مع شرطة للتصغير، أو على الأسهم الخضراء للخرائط المجاورة.


METAR-TAF: